Time;durP1;ratioP1;P1;durP2;ratioP2;P2;SDS_P1;SDS_P2;PMS_P1;PMS_P2;Temp;Humidity;BMP_temperature;BMP_pressure;BME280_temperature;BME280_humidity;BME280_pressure;Samples;Min_cycle;Max_cycle;Signal;HPM_P1;HPM_P2
2023/09/17 00:00:41;;;;;;;;;;;20.80;66.80;;;;;;5113145;28;19919;-70
2023/09/17 00:03:07;;;;;;;;;;;20.80;66.80;;;;;;5114413;27;19959;-70
2023/09/17 00:05:33;;;;;;;;;;;20.70;66.80;;;;;;5114332;28;19943;-70
2023/09/17 00:07:59;;;;;;;;;;;20.80;66.90;;;;;;5114185;27;20367;-70
2023/09/17 00:10:24;;;;;;;;;;;20.80;66.90;;;;;;5114136;28;20006;-70
2023/09/17 00:12:53;;;;;;;;;;;20.80;66.90;;;;;;5112836;28;19930;-70
2023/09/17 00:15:19;;;;;;;;;;;20.70;66.80;;;;;;5112564;28;19923;-70
2023/09/17 00:17:45;;;;;;;;;;;20.70;66.80;;;;;;5113553;28;19920;-72
2023/09/17 00:20:10;;;;;;;;;;;20.70;66.80;;;;;;5114003;28;20439;-70
2023/09/17 00:22:37;;;;;;;;;;;20.70;66.80;;;;;;5113957;28;19930;-70
2023/09/17 00:25:04;;;;;;;;;;;20.70;66.80;;;;;;5112583;28;19935;-70
2023/09/17 00:27:30;;;;;;;;;;;20.70;66.80;;;;;;5112482;28;19919;-70
2023/09/17 00:29:55;;;;;;;;;;;20.70;66.90;;;;;;5113996;28;20323;-70
2023/09/17 00:32:21;;;;;;;;;;;20.70;66.90;;;;;;5112228;28;19931;-70
2023/09/17 00:34:46;;;;;;;;;;;20.70;66.90;;;;;;5113597;28;20292;-70
2023/09/17 00:37:11;;;;;;;;;;;20.70;66.90;;;;;;5113671;28;19920;-70
2023/09/17 00:39:37;;;;;;;;;;;20.70;66.80;;;;;;5112312;28;19920;-70
2023/09/17 00:42:03;;;;;;;;;;;20.70;66.90;;;;;;5112151;28;19920;-70
2023/09/17 00:44:28;;;;;;;;;;;20.70;66.90;;;;;;5113642;28;19920;-70
2023/09/17 00:46:54;;;;;;;;;;;20.70;66.90;;;;;;5112239;28;19996;-70
2023/09/17 00:49:19;;;;;;;;;;;20.70;66.90;;;;;;5112396;28;19920;-70
2023/09/17 00:51:45;;;;;;;;;;;20.70;66.90;;;;;;5112015;28;19980;-70
2023/09/17 00:54:12;;;;;;;;;;;20.70;66.90;;;;;;5112279;28;19969;-70
2023/09/17 00:56:37;;;;;;;;;;;20.70;66.90;;;;;;5112012;28;19919;-70
2023/09/17 00:59:05;;;;;;;;;;;20.70;66.90;;;;;;5112288;28;20002;-70
2023/09/17 01:01:31;;;;;;;;;;;20.70;66.90;;;;;;5111949;28;20390;-70
2023/09/17 01:03:57;;;;;;;;;;;20.70;66.90;;;;;;5111870;28;19962;-70
2023/09/17 01:06:22;;;;;;;;;;;20.70;66.90;;;;;;5111929;28;19920;-72
2023/09/17 01:08:48;;;;;;;;;;;20.70;66.90;;;;;;5146240;27;19920;-70
2023/09/17 01:11:14;;;;;;;;;;;20.70;66.90;;;;;;5112066;28;19942;-70
2023/09/17 01:13:42;;;;;;;;;;;20.70;67.00;;;;;;5112960;28;19931;-70
2023/09/17 01:16:09;;;;;;;;;;;20.70;66.90;;;;;;5111969;28;20349;-70
2023/09/17 01:18:35;;;;;;;;;;;20.70;66.90;;;;;;5111706;28;19919;-70
2023/09/17 01:21:14;;;;;;;;;;;20.60;66.90;;;;;;5111970;28;20004;-73
2023/09/17 01:23:42;;;;;;;;;;;20.60;66.90;;;;;;5112002;28;19943;-70
2023/09/17 01:26:12;;;;;;;;;;;20.70;66.90;;;;;;5112809;28;20274;-70
2023/09/17 01:28:38;;;;;;;;;;;20.60;66.90;;;;;;5111843;28;19920;-70
2023/09/17 01:31:04;;;;;;;;;;;20.70;66.90;;;;;;5112755;28;20421;-69
2023/09/17 01:33:29;;;;;;;;;;;20.70;67.00;;;;;;5111500;28;20366;-72
2023/09/17 01:36:01;;;;;;;;;;;20.70;67.00;;;;;;5111439;28;20056;-72
2023/09/17 01:38:31;;;;;;;;;;;20.70;67.00;;;;;;5111737;28;19924;-70
2023/09/17 01:40:57;;;;;;;;;;;20.60;66.90;;;;;;5112694;28;19923;-70
2023/09/17 01:43:23;;;;;;;;;;;20.60;66.90;;;;;;5111798;28;19920;-70
2023/09/17 01:45:49;;;;;;;;;;;20.60;67.00;;;;;;5111759;28;20363;-71
2023/09/17 01:48:15;;;;;;;;;;;20.60;66.90;;;;;;5112717;28;19965;-70
2023/09/17 01:50:42;;;;;;;;;;;20.60;66.90;;;;;;5111627;28;19919;-70
2023/09/17 01:53:07;;;;;;;;;;;20.60;67.00;;;;;;5111336;28;19930;-70
2023/09/17 01:55:33;;;;;;;;;;;20.60;67.00;;;;;;5111193;28;20002;-70
2023/09/17 01:57:58;;;;;;;;;;;20.60;67.00;;;;;;5111318;28;19919;-70
2023/09/17 02:00:24;;;;;;;;;;;20.60;66.90;;;;;;5111586;28;20329;-70
2023/09/17 02:02:52;;;;;;;;;;;20.60;66.90;;;;;;5111445;28;20286;-70
2023/09/17 02:05:20;;;;;;;;;;;20.60;67.00;;;;;;5111607;28;19920;-72
2023/09/17 02:07:45;;;;;;;;;;;20.60;66.90;;;;;;5111175;28;19920;-70
2023/09/17 02:10:11;;;;;;;;;;;20.60;67.00;;;;;;5111517;28;19920;-70
2023/09/17 02:12:36;;;;;;;;;;;20.60;67.00;;;;;;5112600;28;20306;-69
2023/09/17 02:15:03;;;;;;;;;;;20.60;67.00;;;;;;5111146;28;19919;-70
2023/09/17 02:17:29;;;;;;;;;;;20.60;67.00;;;;;;5111047;28;19928;-70
2023/09/17 02:19:54;;;;;;;;;;;20.60;67.00;;;;;;5111095;28;19920;-70
2023/09/17 02:22:19;;;;;;;;;;;20.60;67.00;;;;;;5112401;28;19920;-70
2023/09/17 02:24:46;;;;;;;;;;;20.60;67.00;;;;;;5111084;28;19927;-70
2023/09/17 02:27:13;;;;;;;;;;;20.60;67.00;;;;;;5111276;28;19920;-70
2023/09/17 02:29:39;;;;;;;;;;;20.60;67.00;;;;;;5111114;28;19929;-70
2023/09/17 02:32:05;;;;;;;;;;;20.60;67.00;;;;;;5110831;28;19997;-69
2023/09/17 02:34:30;;;;;;;;;;;20.60;67.00;;;;;;5110971;28;19920;-70
2023/09/17 02:36:56;;;;;;;;;;;20.60;67.00;;;;;;5111408;28;19931;-70
2023/09/17 02:39:21;;;;;;;;;;;20.60;67.00;;;;;;5112071;28;20327;-69
2023/09/17 02:41:47;;;;;;;;;;;20.60;67.00;;;;;;5115775;28;19920;-70
2023/09/17 02:44:13;;;;;;;;;;;20.60;67.10;;;;;;5115934;28;19919;-70
2023/09/17 02:46:40;;;;;;;;;;;20.60;67.00;;;;;;5114892;28;19980;-70
2023/09/17 02:49:05;;;;;;;;;;;20.50;67.00;;;;;;5115922;28;19924;-70
2023/09/17 02:51:31;;;;;;;;;;;20.50;67.00;;;;;;5114412;28;19926;-71
2023/09/17 02:53:56;;;;;;;;;;;20.50;67.00;;;;;;5116105;28;20035;-70
2023/09/17 02:56:22;;;;;;;;;;;20.50;67.00;;;;;;5114282;28;19968;-70
2023/09/17 02:58:47;;;;;;;;;;;20.50;67.00;;;;;;5114498;28;19945;-70
2023/09/17 03:01:15;;;;;;;;;;;20.50;67.00;;;;;;5114278;28;19926;-70
2023/09/17 03:03:41;;;;;;;;;;;20.50;67.00;;;;;;5114428;28;19920;-70
2023/09/17 03:06:08;;;;;;;;;;;20.60;67.10;;;;;;5114465;28;19920;-69
2023/09/17 03:08:33;;;;;;;;;;;20.60;67.10;;;;;;5114405;28;19920;-70
2023/09/17 03:10:59;;;;;;;;;;;20.50;67.00;;;;;;5114033;28;19927;-72
2023/09/17 03:13:25;;;;;;;;;;;20.50;67.00;;;;;;5115383;28;20040;-70
2023/09/17 03:15:58;;;;;;;;;;;20.50;67.00;;;;;;5148478;27;19920;-70
2023/09/17 03:18:24;;;;;;;;;;;20.50;67.10;;;;;;5094889;28;19965;-70
2023/09/17 03:20:49;;;;;;;;;;;20.50;67.00;;;;;;5094011;28;19924;-70
2023/09/17 03:23:15;;;;;;;;;;;20.50;67.10;;;;;;5094751;28;20368;-69
2023/09/17 03:25:41;;;;;;;;;;;20.50;67.10;;;;;;5093580;28;19920;-70
2023/09/17 03:28:07;;;;;;;;;;;20.50;67.10;;;;;;5094642;28;19927;-70
2023/09/17 03:30:32;;;;;;;;;;;20.50;67.10;;;;;;5127426;27;19920;-70
2023/09/17 03:32:58;;;;;;;;;;;20.50;67.10;;;;;;5127256;27;19980;-69
2023/09/17 03:35:24;;;;;;;;;;;20.50;67.10;;;;;;5094514;28;19920;-70
2023/09/17 03:37:50;;;;;;;;;;;20.50;67.10;;;;;;5127714;27;20398;-70
2023/09/17 03:40:16;;;;;;;;;;;20.50;67.10;;;;;;5127154;27;20410;-70
2023/09/17 03:42:42;;;;;;;;;;;20.50;67.20;;;;;;5094265;28;19927;-69
2023/09/17 03:45:09;;;;;;;;;;;20.50;67.20;;;;;;5093010;28;19920;-69
2023/09/17 03:47:43;;;;;;;;;;;20.50;67.20;;;;;;5093342;28;19923;-70
2023/09/17 03:50:09;;;;;;;;;;;20.50;67.20;;;;;;5126981;27;20397;-70
2023/09/17 03:52:36;;;;;;;;;;;20.50;67.20;;;;;;5093035;28;20378;-70
2023/09/17 03:55:05;;;;;;;;;;;20.40;67.10;;;;;;5126947;27;20267;-69
2023/09/17 03:57:32;;;;;;;;;;;20.50;67.20;;;;;;5094133;28;19942;-70
2023/09/17 03:59:58;;;;;;;;;;;20.60;67.30;;;;;;5094161;28;20340;-72
2023/09/17 04:02:23;;;;;;;;;;;20.50;67.30;;;;;;5094001;28;19927;-72
2023/09/17 04:04:49;;;;;;;;;;;20.50;67.20;;;;;;5127087;27;19962;-70
2023/09/17 04:07:14;;;;;;;;;;;20.40;67.20;;;;;;5093895;28;19975;-72
2023/09/17 04:09:39;;;;;;;;;;;20.50;67.30;;;;;;5093810;28;19920;-70
2023/09/17 04:12:05;;;;;;;;;;;20.50;67.20;;;;;;5092426;28;20008;-70
2023/09/17 04:14:31;;;;;;;;;;;20.40;67.20;;;;;;5093985;28;19927;-70
2023/09/17 04:17:05;;;;;;;;;;;20.40;67.20;;;;;;5102558;28;19920;-70
2023/09/17 04:19:32;;;;;;;;;;;20.40;67.20;;;;;;5113054;28;19926;-70
2023/09/17 04:21:58;;;;;;;;;;;20.40;67.20;;;;;;5112776;28;19923;-70
2023/09/17 04:24:24;;;;;;;;;;;20.40;67.20;;;;;;5113028;28;20057;-70
2023/09/17 04:26:52;;;;;;;;;;;20.50;67.30;;;;;;5112480;28;19920;-70
2023/09/17 04:29:18;;;;;;;;;;;20.40;67.20;;;;;;5113852;28;19919;-69
2023/09/17 04:31:43;;;;;;;;;;;20.40;67.30;;;;;;5112204;28;19930;-72
2023/09/17 04:34:10;;;;;;;;;;;20.50;67.40;;;;;;5113771;28;20328;-69
2023/09/17 04:36:36;;;;;;;;;;;20.40;67.30;;;;;;5112530;28;20004;-70
2023/09/17 04:39:02;;;;;;;;;;;20.50;67.40;;;;;;5112661;28;19952;-69
2023/09/17 04:41:28;;;;;;;;;;;20.40;67.30;;;;;;5113978;28;19920;-69
2023/09/17 04:43:53;;;;;;;;;;;20.40;67.40;;;;;;5147011;27;20333;-69
2023/09/17 04:46:19;;;;;;;;;;;20.40;67.40;;;;;;5113634;28;19926;-71
2023/09/17 04:48:44;;;;;;;;;;;20.40;67.40;;;;;;5112497;28;19919;-69
2023/09/17 04:51:15;;;;;;;;;;;20.40;67.40;;;;;;5112332;28;19927;-69
2023/09/17 04:53:41;;;;;;;;;;;20.40;67.40;;;;;;5112124;28;19920;-70
2023/09/17 04:56:06;;;;;;;;;;;20.40;67.40;;;;;;5112326;28;20356;-69
2023/09/17 04:58:33;;;;;;;;;;;20.40;67.40;;;;;;5113524;28;19927;-69
2023/09/17 05:00:58;;;;;;;;;;;20.40;67.40;;;;;;5112046;28;19981;-70
2023/09/17 05:03:24;;;;;;;;;;;20.40;67.40;;;;;;5111484;28;19920;-70
2023/09/17 05:05:49;;;;;;;;;;;20.40;67.40;;;;;;5112250;28;19920;-70
2023/09/17 05:08:16;;;;;;;;;;;20.40;67.40;;;;;;5112110;28;19919;-70
2023/09/17 05:10:42;;;;;;;;;;;20.40;67.40;;;;;;5113124;28;19920;-72
2023/09/17 05:13:08;;;;;;;;;;;20.40;67.40;;;;;;5111788;28;20014;-69
2023/09/17 05:15:34;;;;;;;;;;;20.40;67.50;;;;;;5112027;28;20426;-72
2023/09/17 05:18:00;;;;;;;;;;;20.40;67.40;;;;;;5113023;28;20010;-70
2023/09/17 05:20:25;;;;;;;;;;;20.40;67.50;;;;;;5112252;28;20003;-70
2023/09/17 05:22:51;;;;;;;;;;;20.40;67.50;;;;;;5111633;28;20408;-69
2023/09/17 05:25:16;;;;;;;;;;;20.40;67.50;;;;;;5112043;28;19969;-69
2023/09/17 05:27:42;;;;;;;;;;;20.40;67.60;;;;;;5111844;28;20347;-69
2023/09/17 05:30:08;;;;;;;;;;;20.40;67.60;;;;;;5113176;28;20390;-69
2023/09/17 05:32:33;;;;;;;;;;;20.40;67.60;;;;;;5111219;28;20382;-69
2023/09/17 05:34:59;;;;;;;;;;;20.40;67.60;;;;;;5111547;28;19969;-69
2023/09/17 05:37:25;;;;;;;;;;;20.40;67.60;;;;;;5111621;28;19920;-69
2023/09/17 05:39:51;;;;;;;;;;;20.40;67.60;;;;;;5113248;28;19970;-68
2023/09/17 05:42:16;;;;;;;;;;;20.40;67.60;;;;;;5111693;28;19959;-68
2023/09/17 05:44:42;;;;;;;;;;;20.40;67.60;;;;;;5111708;28;19919;-68
2023/09/17 05:47:07;;;;;;;;;;;20.40;67.60;;;;;;5111495;28;19920;-68
2023/09/17 05:49:33;;;;;;;;;;;20.40;67.60;;;;;;5111681;28;19919;-69
2023/09/17 05:51:59;;;;;;;;;;;20.30;67.60;;;;;;5111594;28;20302;-69
2023/09/17 05:54:25;;;;;;;;;;;20.40;67.70;;;;;;5111633;28;20394;-69
2023/09/17 05:56:50;;;;;;;;;;;20.40;67.70;;;;;;5111675;28;19919;-68
2023/09/17 05:59:17;;;;;;;;;;;20.40;67.70;;;;;;5111570;28;20455;-69
2023/09/17 06:01:42;;;;;;;;;;;20.40;67.70;;;;;;5111347;28;20192;-69
2023/09/17 06:04:08;;;;;;;;;;;20.40;67.70;;;;;;5112659;28;20248;-68
2023/09/17 06:06:33;;;;;;;;;;;20.30;67.70;;;;;;5111527;28;19919;-69
2023/09/17 06:08:59;;;;;;;;;;;20.40;67.80;;;;;;5111153;28;19920;-71
2023/09/17 06:11:25;;;;;;;;;;;20.30;67.80;;;;;;5112581;28;19959;-69
2023/09/17 06:13:50;;;;;;;;;;;20.40;67.90;;;;;;5111039;28;19924;-68
2023/09/17 06:16:16;;;;;;;;;;;20.40;67.90;;;;;;5115402;28;20015;-69
2023/09/17 06:18:42;;;;;;;;;;;20.40;67.90;;;;;;5116399;28;20044;-68
2023/09/17 06:21:07;;;;;;;;;;;20.40;68.00;;;;;;5115207;28;20338;-68
2023/09/17 06:23:33;;;;;;;;;;;20.40;67.90;;;;;;5115018;28;19920;-68
2023/09/17 06:25:59;;;;;;;;;;;20.30;67.90;;;;;;5115213;28;19926;-68
2023/09/17 06:28:25;;;;;;;;;;;20.30;67.90;;;;;;5114919;28;19934;-68
2023/09/17 06:30:51;;;;;;;;;;;20.30;67.90;;;;;;5114842;28;19972;-68
2023/09/17 06:33:16;;;;;;;;;;;20.30;67.90;;;;;;5114566;28;19934;-68
2023/09/17 06:35:42;;;;;;;;;;;20.30;68.00;;;;;;5114736;28;19920;-68
2023/09/17 06:38:07;;;;;;;;;;;20.30;68.00;;;;;;5114994;28;19927;-68
2023/09/17 06:40:33;;;;;;;;;;;20.30;68.00;;;;;;5115957;28;20003;-68
2023/09/17 06:42:59;;;;;;;;;;;20.30;68.00;;;;;;5115918;28;19920;-67
2023/09/17 06:45:24;;;;;;;;;;;20.30;68.00;;;;;;5114491;28;19969;-67
2023/09/17 06:47:50;;;;;;;;;;;20.30;68.00;;;;;;5116072;28;19963;-67
2023/09/17 06:50:15;;;;;;;;;;;20.30;68.00;;;;;;5114435;28;19920;-67
2023/09/17 06:52:41;;;;;;;;;;;20.30;68.00;;;;;;5114440;28;19924;-68
2023/09/17 06:55:06;;;;;;;;;;;20.30;68.00;;;;;;5114393;28;19932;-67
2023/09/17 06:57:32;;;;;;;;;;;20.30;68.00;;;;;;5114433;28;19920;-68
2023/09/17 06:59:57;;;;;;;;;;;20.30;68.00;;;;;;5115533;28;19920;-69
2023/09/17 07:02:26;;;;;;;;;;;20.30;68.10;;;;;;5115683;28;19981;-68
2023/09/17 07:04:51;;;;;;;;;;;20.30;68.00;;;;;;5115737;28;19920;-68
2023/09/17 07:07:17;;;;;;;;;;;20.30;68.00;;;;;;5115444;28;19942;-71
2023/09/17 07:09:43;;;;;;;;;;;20.30;68.00;;;;;;5114508;28;19920;-67
2023/09/17 07:12:08;;;;;;;;;;;20.30;68.10;;;;;;5114163;28;20006;-67
2023/09/17 07:14:34;;;;;;;;;;;20.30;68.10;;;;;;5114337;28;20393;-67
2023/09/17 07:16:59;;;;;;;;;;;20.30;68.10;;;;;;5114209;28;19920;-67
2023/09/17 07:19:27;;;;;;;;;;;20.30;68.10;;;;;;5115435;28;19972;-68
2023/09/17 07:21:52;;;;;;;;;;;20.30;68.10;;;;;;5115237;28;19920;-68
2023/09/17 07:24:18;;;;;;;;;;;20.30;68.10;;;;;;5114281;28;19919;-67
2023/09/17 07:26:43;;;;;;;;;;;20.30;68.10;;;;;;5113690;28;19920;-68
2023/09/17 07:29:09;;;;;;;;;;;20.30;68.20;;;;;;5115095;28;20394;-67
2023/09/17 07:31:34;;;;;;;;;;;20.30;68.20;;;;;;5113468;28;19924;-68
2023/09/17 07:34:00;;;;;;;;;;;20.30;68.10;;;;;;5114024;28;20367;-68
2023/09/17 07:36:25;;;;;;;;;;;20.30;68.20;;;;;;5115193;28;19923;-67
2023/09/17 07:38:51;;;;;;;;;;;20.30;68.20;;;;;;5114898;28;19926;-69
2023/09/17 07:41:17;;;;;;;;;;;20.30;68.20;;;;;;5113552;28;19927;-71
2023/09/17 07:43:42;;;;;;;;;;;20.30;68.20;;;;;;5113788;28;20306;-67
2023/09/17 07:46:13;;;;;;;;;;;20.30;68.20;;;;;;5114697;28;19924;-68
2023/09/17 07:48:38;;;;;;;;;;;20.30;68.20;;;;;;5114682;28;19963;-68
2023/09/17 07:51:04;;;;;;;;;;;20.30;68.30;;;;;;5113345;28;20342;-68
2023/09/17 07:53:29;;;;;;;;;;;20.30;68.30;;;;;;5113159;28;19989;-67
2023/09/17 07:55:56;;;;;;;;;;;20.30;68.30;;;;;;5113581;28;19930;-67
2023/09/17 07:58:22;;;;;;;;;;;20.30;68.30;;;;;;5113488;28;20024;-68
2023/09/17 08:00:48;;;;;;;;;;;20.30;68.30;;;;;;5113364;28;19925;-68
2023/09/17 08:03:15;;;;;;;;;;;20.30;68.30;;;;;;5113026;28;19924;-68
2023/09/17 08:05:42;;;;;;;;;;;20.30;68.30;;;;;;5114386;27;19919;-67
2023/09/17 08:08:08;;;;;;;;;;;20.30;68.30;;;;;;5112963;28;20390;-68
2023/09/17 08:10:34;;;;;;;;;;;20.30;68.30;;;;;;5112976;28;19920;-68
2023/09/17 08:12:59;;;;;;;;;;;20.30;68.40;;;;;;5095757;28;19920;-68
2023/09/17 08:15:27;;;;;;;;;;;20.30;68.30;;;;;;5113104;28;20077;-68
2023/09/17 08:17:53;;;;;;;;;;;20.30;68.30;;;;;;5112924;28;19941;-68
2023/09/17 08:20:19;;;;;;;;;;;20.30;68.40;;;;;;5113081;28;19919;-68
2023/09/17 08:22:45;;;;;;;;;;;20.30;68.40;;;;;;5114032;27;19919;-68
2023/09/17 08:25:11;;;;;;;;;;;20.30;68.40;;;;;;5147404;27;19969;-68
2023/09/17 08:27:37;;;;;;;;;;;20.30;68.40;;;;;;5112654;28;19920;-68
2023/09/17 08:30:11;;;;;;;;;;;20.30;68.40;;;;;;5112545;28;20015;-68
2023/09/17 08:32:37;;;;;;;;;;;20.30;68.40;;;;;;5113613;28;20370;-68
2023/09/17 08:35:03;;;;;;;;;;;20.30;68.40;;;;;;5112494;28;19920;-68
2023/09/17 08:37:29;;;;;;;;;;;20.30;68.40;;;;;;5113206;28;19919;-68
2023/09/17 08:39:54;;;;;;;;;;;20.30;68.40;;;;;;5112329;28;20451;-68
2023/09/17 08:42:21;;;;;;;;;;;20.30;68.40;;;;;;5113637;28;19972;-68
2023/09/17 08:44:48;;;;;;;;;;;20.30;68.40;;;;;;5112604;28;19919;-68
2023/09/17 08:47:13;;;;;;;;;;;20.30;68.40;;;;;;5112516;28;19919;-68
2023/09/17 08:49:39;;;;;;;;;;;20.30;68.40;;;;;;5112233;28;19920;-68
2023/09/17 08:52:06;;;;;;;;;;;20.30;68.40;;;;;;5112424;28;19923;-68
2023/09/17 08:54:37;;;;;;;;;;;20.30;68.50;;;;;;5112391;28;19927;-68
2023/09/17 08:57:04;;;;;;;;;;;20.30;68.40;;;;;;5112117;28;19920;-68
2023/09/17 08:59:29;;;;;;;;;;;20.30;68.50;;;;;;5112255;28;19919;-68
2023/09/17 09:01:56;;;;;;;;;;;20.30;68.40;;;;;;5113678;28;19931;-68
2023/09/17 09:04:22;;;;;;;;;;;20.30;69.20;;;;;;5113147;28;19919;-68
2023/09/17 09:06:48;;;;;;;;;;;20.30;68.50;;;;;;5112312;28;19927;-68
2023/09/17 09:09:14;;;;;;;;;;;20.30;68.40;;;;;;5112246;28;19920;-68
2023/09/17 09:11:40;;;;;;;;;;;20.30;68.40;;;;;;5111777;28;19920;-68
2023/09/17 09:14:06;;;;;;;;;;;20.30;68.40;;;;;;5111851;28;19924;-68
2023/09/17 09:16:33;;;;;;;;;;;20.30;68.50;;;;;;5112922;28;19920;-68
2023/09/17 09:18:59;;;;;;;;;;;20.30;68.50;;;;;;5112058;28;19919;-68
2023/09/17 09:21:24;;;;;;;;;;;20.30;68.50;;;;;;5113038;28;19923;-68
2023/09/17 09:23:50;;;;;;;;;;;20.30;68.50;;;;;;5111722;28;19973;-68
2023/09/17 09:26:15;;;;;;;;;;;20.30;68.40;;;;;;5111581;28;19927;-68
2023/09/17 09:28:41;;;;;;;;;;;20.30;68.40;;;;;;5112920;28;19920;-68
2023/09/17 09:31:07;;;;;;;;;;;20.40;68.40;;;;;;5112548;28;19926;-68
2023/09/17 09:33:33;;;;;;;;;;;20.40;68.40;;;;;;5111647;28;20333;-68
2023/09/17 09:36:00;;;;;;;;;;;20.40;68.50;;;;;;5111812;28;19920;-68
2023/09/17 09:38:26;;;;;;;;;;;20.40;68.40;;;;;;5112944;28;19919;-68
2023/09/17 09:40:53;;;;;;;;;;;20.40;68.50;;;;;;5111434;28;20378;-68
2023/09/17 09:43:33;;;;;;;;;;;20.40;68.50;;;;;;5111447;28;19920;-68
2023/09/17 09:46:00;;;;;;;;;;;20.40;68.50;;;;;;5112654;28;19920;-68
2023/09/17 09:48:27;;;;;;;;;;;20.40;68.60;;;;;;5112895;28;19943;-68
2023/09/17 09:50:52;;;;;;;;;;;20.40;68.50;;;;;;5115635;28;20367;-68
2023/09/17 09:53:18;;;;;;;;;;;20.40;68.50;;;;;;5115716;28;20060;-68
2023/09/17 09:55:44;;;;;;;;;;;20.40;68.50;;;;;;5115667;28;20397;-68
2023/09/17 09:58:10;;;;;;;;;;;20.40;68.50;;;;;;5115841;28;19920;-68
2023/09/17 10:00:36;;;;;;;;;;;20.40;68.60;;;;;;5115496;28;20396;-68
2023/09/17 10:03:02;;;;;;;;;;;20.40;68.60;;;;;;5116664;28;19926;-68
2023/09/17 10:05:31;;;;;;;;;;;20.40;68.60;;;;;;5115411;28;19963;-70
2023/09/17 10:07:56;;;;;;;;;;;20.40;68.60;;;;;;5116586;28;19930;-72
2023/09/17 10:10:22;;;;;;;;;;;20.40;68.60;;;;;;5115742;28;19920;-73
2023/09/17 10:12:48;;;;;;;;;;;20.40;68.60;;;;;;5116449;28;20417;-68
2023/09/17 10:15:14;;;;;;;;;;;20.40;68.60;;;;;;5116429;28;19965;-68
2023/09/17 10:17:39;;;;;;;;;;;20.40;68.60;;;;;;5115318;28;20359;-69
2023/09/17 10:20:06;;;;;;;;;;;20.40;68.60;;;;;;5115194;28;20290;-68
2023/09/17 10:22:34;;;;;;;;;;;20.40;68.70;;;;;;5115041;28;19920;-68
2023/09/17 10:25:05;;;;;;;;;;;20.40;68.60;;;;;;5115383;28;19982;-68
2023/09/17 10:27:31;;;;;;;;;;;20.40;68.60;;;;;;5116236;28;20018;-68
2023/09/17 10:29:57;;;;;;;;;;;20.40;68.60;;;;;;5115205;28;20344;-68
2023/09/17 10:32:23;;;;;;;;;;;20.50;68.70;;;;;;5114513;28;20397;-68
2023/09/17 10:34:49;;;;;;;;;;;20.40;68.60;;;;;;5115211;28;19924;-72
2023/09/17 10:37:16;;;;;;;;;;;20.40;68.70;;;;;;5114869;28;19927;-69
2023/09/17 10:39:42;;;;;;;;;;;20.40;68.70;;;;;;5114712;28;19954;-68
2023/09/17 10:42:09;;;;;;;;;;;20.40;68.70;;;;;;5114776;28;19926;-72
2023/09/17 10:44:36;;;;;;;;;;;20.40;68.70;;;;;;5115921;28;20005;-68
2023/09/17 10:47:03;;;;;;;;;;;20.40;68.70;;;;;;5114675;28;20397;-68
2023/09/17 10:49:31;;;;;;;;;;;20.40;68.70;;;;;;5116005;28;19927;-68
2023/09/17 10:51:57;;;;;;;;;;;20.40;68.70;;;;;;5115878;28;20012;-68
2023/09/17 10:54:22;;;;;;;;;;;20.40;68.70;;;;;;5114733;28;19985;-72
2023/09/17 10:56:48;;;;;;;;;;;20.40;68.60;;;;;;5114734;28;19951;-68
2023/09/17 10:59:15;;;;;;;;;;;20.40;68.70;;;;;;5115659;28;19927;-68
2023/09/17 11:01:42;;;;;;;;;;;20.40;68.70;;;;;;5113537;28;20390;-68
2023/09/17 11:04:10;;;;;;;;;;;20.40;68.80;;;;;;5115824;28;20374;-68
2023/09/17 11:06:37;;;;;;;;;;;20.40;68.80;;;;;;5114583;28;19923;-68
2023/09/17 11:09:04;;;;;;;;;;;20.40;68.80;;;;;;5115626;28;19919;-68
2023/09/17 11:11:30;;;;;;;;;;;20.40;68.80;;;;;;5114475;28;19963;-68
2023/09/17 11:13:56;;;;;;;;;;;20.40;68.80;;;;;;5114246;28;19985;-68
2023/09/17 11:16:26;;;;;;;;;;;20.40;68.90;;;;;;5115310;28;19982;-68
2023/09/17 11:19:11;;;;;;;;;;;20.40;68.90;;;;;;5113931;28;19927;-68
2023/09/17 11:21:39;;;;;;;;;;;20.40;68.90;;;;;;5115201;28;20010;-68
2023/09/17 11:24:06;;;;;;;;;;;20.40;68.90;;;;;;5115150;28;19920;-68
2023/09/17 11:26:33;;;;;;;;;;;20.40;68.90;;;;;;5114165;28;19926;-68
2023/09/17 11:28:58;;;;;;;;;;;20.40;68.90;;;;;;5114136;28;19975;-68
2023/09/17 11:31:25;;;;;;;;;;;20.40;69.00;;;;;;5114954;28;20387;-68
2023/09/17 11:33:51;;;;;;;;;;;20.40;68.90;;;;;;5113699;28;19924;-68
2023/09/17 11:36:17;;;;;;;;;;;20.50;68.90;;;;;;5115021;28;20282;-68
2023/09/17 11:38:47;;;;;;;;;;;20.50;69.00;;;;;;5113723;28;20332;-68
2023/09/17 11:41:15;;;;;;;;;;;20.40;68.70;;;;;;5114857;28;19927;-68
2023/09/17 11:43:43;;;;;;;;;;;20.40;68.70;;;;;;5114790;28;19952;-72
2023/09/17 11:46:09;;;;;;;;;;;20.50;68.70;;;;;;5113476;28;19919;-68
2023/09/17 11:48:36;;;;;;;;;;;20.50;68.70;;;;;;5114767;27;20446;-68
2023/09/17 11:53:59;;;;;;;;;;;20.50;68.70;;;;;;5130827;27;19918;-68
2023/09/17 11:56:27;;;;;;;;;;;20.50;68.80;;;;;;5129735;28;19923;-68
2023/09/17 11:59:00;;;;;;;;;;;20.40;68.80;;;;;;5129492;28;19919;-68
2023/09/17 12:01:28;;;;;;;;;;;20.50;68.70;;;;;;5121651;27;19920;-68
2023/09/17 12:03:54;;;;;;;;;;;20.50;68.80;;;;;;5108283;28;19927;-68
2023/09/17 12:06:20;;;;;;;;;;;20.40;68.70;;;;;;5107830;28;19920;-68
2023/09/17 12:08:46;;;;;;;;;;;20.40;68.90;;;;;;5108811;28;19920;-68
2023/09/17 12:11:21;;;;;;;;;;;20.50;69.00;;;;;;5142983;27;20443;-68
2023/09/17 12:13:53;;;;;;;;;;;20.40;69.00;;;;;;5142868;27;19990;-68
2023/09/17 12:16:21;;;;;;;;;;;20.50;69.20;;;;;;5113182;28;19919;-68
2023/09/17 12:18:46;;;;;;;;;;;20.50;69.00;;;;;;5163624;27;19966;-68
2023/09/17 12:21:12;;;;;;;;;;;20.40;69.20;;;;;;5129178;28;19970;-68
2023/09/17 12:23:47;;;;;;;;;;;20.50;69.30;;;;;;5130258;27;20328;-68
2023/09/17 12:26:21;;;;;;;;;;;20.50;69.50;;;;;;5163437;27;19926;-68
2023/09/17 12:28:47;;;;;;;;;;;20.40;69.40;;;;;;5130144;27;19943;-68
2023/09/17 12:31:13;;;;;;;;;;;20.50;69.40;;;;;;5129000;28;20375;-68
2023/09/17 12:33:39;;;;;;;;;;;20.50;69.30;;;;;;5129945;28;19928;-68
2023/09/17 12:36:05;;;;;;;;;;;20.40;69.30;;;;;;5128910;28;20268;-68
2023/09/17 12:38:31;;;;;;;;;;;20.40;69.30;;;;;;5128783;28;19927;-68
2023/09/17 12:40:56;;;;;;;;;;;20.50;69.40;;;;;;5128940;28;19972;-68
2023/09/17 12:43:22;;;;;;;;;;;20.40;69.30;;;;;;5128875;28;19933;-68
2023/09/17 12:45:47;;;;;;;;;;;20.50;69.50;;;;;;5128474;28;19941;-68
2023/09/17 12:48:13;;;;;;;;;;;20.50;69.40;;;;;;5128768;28;19932;-68
2023/09/17 12:50:42;;;;;;;;;;;20.40;69.30;;;;;;5128306;28;20346;-68
2023/09/17 12:53:08;;;;;;;;;;;20.40;69.30;;;;;;5129473;27;19965;-68
2023/09/17 12:55:33;;;;;;;;;;;20.40;69.30;;;;;;5129576;28;20301;-68
2023/09/17 12:57:59;;;;;;;;;;;20.50;69.50;;;;;;5111228;28;19923;-71
2023/09/17 13:00:24;;;;;;;;;;;20.50;69.40;;;;;;5111512;28;19972;-68
2023/09/17 13:02:53;;;;;;;;;;;20.50;69.40;;;;;;5145367;27;20386;-68
2023/09/17 13:05:19;;;;;;;;;;;20.40;69.40;;;;;;5115394;28;19924;-68
2023/09/17 13:07:45;;;;;;;;;;;20.40;69.30;;;;;;5097379;28;19934;-68
2023/09/17 13:10:11;;;;;;;;;;;20.50;69.40;;;;;;5097660;28;19920;-68
2023/09/17 13:12:36;;;;;;;;;;;20.40;69.50;;;;;;5097404;28;19979;-68
2023/09/17 13:15:03;;;;;;;;;;;20.50;69.50;;;;;;5131758;27;19981;-68
2023/09/17 13:17:29;;;;;;;;;;;20.50;69.60;;;;;;5115465;28;19924;-68
2023/09/17 13:19:55;;;;;;;;;;;20.40;69.50;;;;;;5115388;28;19920;-68
2023/09/17 13:22:21;;;;;;;;;;;20.50;69.60;;;;;;5097182;28;20251;-68
2023/09/17 13:24:47;;;;;;;;;;;20.50;69.60;;;;;;5097107;28;19919;-68
2023/09/17 13:27:15;;;;;;;;;;;20.50;69.60;;;;;;5097349;28;19920;-68
2023/09/17 13:29:41;;;;;;;;;;;20.50;69.70;;;;;;5097196;28;20291;-68
2023/09/17 13:32:09;;;;;;;;;;;20.50;69.80;;;;;;5097001;28;19923;-68
2023/09/17 13:34:36;;;;;;;;;;;20.50;69.60;;;;;;5115178;28;19920;-68
2023/09/17 13:37:03;;;;;;;;;;;20.50;69.70;;;;;;5115064;28;19919;-68
2023/09/17 13:39:30;;;;;;;;;;;20.50;69.70;;;;;;5097014;28;19931;-68
2023/09/17 13:41:56;;;;;;;;;;;20.50;69.80;;;;;;5096807;28;19926;-68
2023/09/17 13:44:22;;;;;;;;;;;20.50;69.60;;;;;;5096692;28;19965;-69
2023/09/17 13:46:47;;;;;;;;;;;20.50;69.80;;;;;;5114991;28;19920;-68
2023/09/17 13:49:13;;;;;;;;;;;20.50;69.80;;;;;;5096916;28;20383;-68
2023/09/17 13:51:38;;;;;;;;;;;20.50;69.80;;;;;;5114455;28;19924;-68
2023/09/17 13:54:04;;;;;;;;;;;20.50;69.80;;;;;;5096724;28;19920;-68
2023/09/17 13:56:29;;;;;;;;;;;20.50;69.80;;;;;;5096463;28;20054;-68
2023/09/17 13:58:55;;;;;;;;;;;20.50;69.90;;;;;;5096797;28;19920;-68
2023/09/17 14:01:20;;;;;;;;;;;20.50;69.90;;;;;;5096308;28;19977;-69
2023/09/17 14:03:46;;;;;;;;;;;20.50;69.90;;;;;;5096285;28;19920;-68
2023/09/17 14:06:11;;;;;;;;;;;20.50;70.00;;;;;;5096176;28;20299;-68
2023/09/17 14:08:37;;;;;;;;;;;20.50;70.00;;;;;;5096278;28;19997;-68
2023/09/17 14:11:03;;;;;;;;;;;20.50;69.90;;;;;;5096596;28;19980;-68
2023/09/17 14:13:29;;;;;;;;;;;20.50;70.00;;;;;;5114745;28;19928;-68